createdAt,value
2022-11-07T00:00:18.647Z,27.08
2022-11-07T00:01:22.833Z,29.33
2022-11-07T00:02:25.011Z,26.92
2022-11-07T00:03:26.943Z,26.55
2022-11-07T00:04:30.760Z,26.63
2022-11-07T00:05:32.680Z,27.39
2022-11-07T00:06:34.640Z,27.59
2022-11-07T00:07:36.702Z,27.79
2022-11-07T00:08:39.983Z,27.99
2022-11-07T00:09:41.872Z,28.30
2022-11-07T00:10:43.871Z,27.97
2022-11-07T00:11:46.200Z,25.97
2022-11-07T00:12:48.096Z,25.87
2022-11-07T00:13:50.038Z,27.69
2022-11-07T00:14:51.930Z,28.81
2022-11-07T00:15:56.377Z,26.13
2022-11-07T00:16:58.399Z,27.22
2022-11-07T00:18:00.287Z,28.59
2022-11-07T00:19:02.271Z,27.77
2022-11-07T00:20:05.813Z,29.10
2022-11-07T00:21:09.331Z,26.81
2022-11-07T00:22:11.209Z,28.95
2022-11-07T00:23:13.330Z,27.31
2022-11-07T00:24:17.187Z,28.23
2022-11-07T00:25:19.110Z,26.48
2022-11-07T00:26:21.104Z,26.53
2022-11-07T00:27:23.122Z,26.39
2022-11-07T00:28:25.046Z,27.38
2022-11-07T00:29:26.927Z,27.05
2022-11-07T00:30:28.888Z,27.19
2022-11-07T00:31:31.963Z,26.25
2022-11-07T00:32:33.823Z,26.17
2022-11-07T00:33:37.113Z,28.75
2022-11-07T00:34:38.995Z,28.84
2022-11-07T00:35:41.300Z,26.28
2022-11-07T00:36:43.317Z,27.83
2022-11-07T00:37:45.200Z,27.27
2022-11-07T00:38:47.796Z,26.88
2022-11-07T00:39:49.683Z,27.17
2022-11-07T00:41:00.840Z,25.99
2022-11-07T00:42:03.478Z,26.20
2022-11-07T00:43:05.573Z,27.70
2022-11-07T00:44:07.425Z,26.26
2022-11-07T00:45:10.581Z,26.71
2022-11-07T00:46:15.795Z,27.76
2022-11-07T00:47:17.697Z,28.92
2022-11-07T00:48:19.560Z,27.23
2022-11-07T00:49:21.422Z,27.05
2022-11-07T00:50:23.382Z,27.89
2022-11-07T00:51:27.770Z,27.48
2022-11-07T00:52:30.979Z,27.18
2022-11-07T00:53:32.964Z,27.94
2022-11-07T00:54:34.856Z,27.17
2022-11-07T00:55:36.714Z,27.58
2022-11-07T00:56:38.692Z,26.91
2022-11-07T00:57:40.559Z,26.49
2022-11-07T00:58:43.229Z,26.19
2022-11-07T00:59:45.113Z,25.33
2022-11-07T01:00:47.186Z,28.43
2022-11-07T01:01:49.201Z,27.40
2022-11-07T01:02:51.402Z,25.99
2022-11-07T01:03:54.525Z,25.96
2022-11-07T01:04:56.413Z,26.54
2022-11-07T01:06:00.969Z,26.32
2022-11-07T01:07:04.270Z,27.16
2022-11-07T01:08:06.353Z,27.34
2022-11-07T01:09:11.219Z,27.12
2022-11-07T01:10:13.882Z,26.29
2022-11-07T01:11:15.748Z,26.53
2022-11-07T01:12:17.618Z,26.82
2022-11-07T01:13:20.409Z,28.87
2022-11-07T01:14:22.689Z,26.64
2022-11-07T01:15:24.599Z,26.14
2022-11-07T01:16:28.171Z,28.56
2022-11-07T01:17:30.063Z,26.96
2022-11-07T01:18:32.032Z,27.15
2022-11-07T01:19:33.891Z,27.61
2022-11-07T01:20:36.063Z,27.08
2022-11-07T01:21:41.223Z,26.12
2022-11-07T01:22:43.125Z,27.67
2022-11-07T01:23:45.031Z,27.37
2022-11-07T01:24:46.923Z,26.59
2022-11-07T01:25:48.995Z,26.41
2022-11-07T01:26:51.827Z,25.22
2022-11-07T01:27:53.864Z,27.36
2022-11-07T01:28:56.246Z,25.57
2022-11-07T01:29:58.111Z,26.51
2022-11-07T01:31:03.484Z,26.82
2022-11-07T01:32:05.405Z,26.72
2022-11-07T01:33:08.753Z,27.91
2022-11-07T01:34:10.631Z,26.73
2022-11-07T01:35:12.519Z,27.14
2022-11-07T01:36:17.384Z,27.69
2022-11-07T01:37:19.319Z,27.36
2022-11-07T01:38:21.183Z,27.26
2022-11-07T01:39:23.056Z,27.41
2022-11-07T01:40:25.637Z,27.83
2022-11-07T01:41:30.689Z,25.97
2022-11-07T01:42:32.880Z,26.60
2022-11-07T01:43:45.326Z,26.23
2022-11-07T01:44:53.160Z,26.78
2022-11-07T01:45:55.209Z,25.92
2022-11-07T01:46:59.481Z,26.10
2022-11-07T01:48:02.872Z,27.18
2022-11-07T01:49:14.762Z,26.58
2022-11-07T01:50:18.017Z,25.96
2022-11-07T01:51:22.600Z,25.83
2022-11-07T01:54:46.699Z,25.01
2022-11-07T01:55:48.633Z,25.58
2022-11-07T01:56:53.043Z,26.65
2022-11-07T01:57:58.711Z,26.85
2022-11-07T01:59:03.236Z,26.63
2022-11-07T02:00:08.978Z,26.87
2022-11-07T02:01:11.732Z,25.74
2022-11-07T02:02:14.715Z,26.12
2022-11-07T02:03:19.627Z,25.55
2022-11-07T02:04:24.639Z,26.31
2022-11-07T02:05:36.385Z,26.48
2022-11-07T02:06:44.935Z,25.13
2022-11-07T02:07:47.037Z,26.72
2022-11-07T02:08:51.489Z,26.26
2022-11-07T02:09:54.812Z,27.83
2022-11-07T02:10:57.445Z,27.54
2022-11-07T02:11:59.315Z,27.05
2022-11-07T02:13:02.518Z,25.84
2022-11-07T02:14:05.839Z,26.14
2022-11-07T02:15:09.922Z,25.46
2022-11-07T02:16:12.120Z,25.81
2022-11-07T02:17:15.786Z,26.59
2022-11-07T02:18:18.156Z,26.41
2022-11-07T02:21:57.830Z,24.67
2022-11-07T02:23:18.969Z,25.74
2022-11-07T02:24:30.789Z,27.65
2022-11-07T02:25:32.694Z,26.81
2022-11-07T02:26:37.659Z,26.25
2022-11-07T02:27:42.811Z,24.89
2022-11-07T02:28:47.200Z,24.75
2022-11-07T02:29:52.858Z,26.35
2022-11-07T02:30:54.979Z,26.29
2022-11-07T02:32:05.880Z,25.11
2022-11-07T02:33:22.789Z,26.12
2022-11-07T02:34:24.699Z,25.68
2022-11-07T02:35:36.156Z,26.19
2022-11-07T02:36:38.250Z,25.69
2022-11-07T02:37:40.117Z,25.80
2022-11-07T02:38:43.580Z,25.68
2022-11-07T02:39:45.828Z,26.35
2022-11-07T02:40:54.919Z,26.66
2022-11-07T02:42:01.185Z,27.17
2022-11-07T02:43:05.133Z,25.38
2022-11-07T02:44:10.287Z,24.73
2022-11-07T02:45:19.386Z,24.87
2022-11-07T02:46:22.661Z,25.74
2022-11-07T02:47:24.581Z,26.51
2022-11-07T02:48:34.807Z,24.15
2022-11-07T02:49:36.811Z,25.16
2022-11-07T02:50:40.511Z,25.39
2022-11-07T02:51:42.397Z,25.42
2022-11-07T02:52:44.316Z,26.07
2022-11-07T02:53:46.184Z,24.21
2022-11-07T02:54:48.040Z,25.64
2022-11-07T02:55:50.204Z,24.86
2022-11-07T02:56:52.191Z,25.09
2022-11-07T02:57:54.122Z,24.87
2022-11-07T02:58:55.990Z,25.03
2022-11-07T02:59:57.850Z,25.15
2022-11-07T03:00:59.924Z,24.02
2022-11-07T03:02:02.546Z,24.77
2022-11-07T03:03:04.622Z,24.49
2022-11-07T03:04:06.575Z,26.15
2022-11-07T03:05:08.728Z,24.39
2022-11-07T03:06:14.104Z,23.63
2022-11-07T03:07:16.016Z,25.38
2022-11-07T03:08:17.906Z,24.85
2022-11-07T03:09:19.760Z,24.85
2022-11-07T03:10:21.709Z,23.58
2022-11-07T03:11:23.674Z,24.73
2022-11-07T03:12:25.561Z,25.50
2022-11-07T03:13:27.435Z,23.79
2022-11-07T03:14:29.320Z,25.05
2022-11-07T03:15:31.246Z,25.28
2022-11-07T03:16:33.223Z,23.85
2022-11-07T03:17:35.481Z,24.99
2022-11-07T03:18:37.564Z,24.23
2022-11-07T03:19:39.427Z,24.30
2022-11-07T03:20:41.449Z,24.20
2022-11-07T03:21:43.312Z,25.43
2022-11-07T03:22:46.883Z,25.17
2022-11-07T03:23:48.806Z,24.96
2022-11-07T03:24:50.702Z,24.79
2022-11-07T03:25:52.568Z,22.76
2022-11-07T03:26:54.671Z,24.05
2022-11-07T03:27:56.531Z,23.57
2022-11-07T03:28:58.448Z,24.29
2022-11-07T03:30:00.538Z,22.56
2022-11-07T03:31:03.820Z,24.04
2022-11-07T03:32:06.225Z,24.57
2022-11-07T03:33:08.774Z,24.97
2022-11-07T03:34:10.812Z,24.08
2022-11-07T03:35:13.264Z,22.99
2022-11-07T03:36:15.731Z,24.34
2022-11-07T03:37:17.753Z,23.80
2022-11-07T03:38:20.367Z,23.81
2022-11-07T03:39:25.824Z,24.44
2022-11-07T03:40:26.149Z,25.87
2022-11-07T03:41:28.628Z,22.29
2022-11-07T03:42:30.626Z,23.52
2022-11-07T03:43:32.593Z,23.69
2022-11-07T03:44:36.688Z,23.31
2022-11-07T03:45:38.586Z,23.12
2022-11-07T03:46:40.593Z,24.21
2022-11-07T03:47:44.558Z,23.19
2022-11-07T03:48:46.526Z,24.29
2022-11-07T03:49:48.394Z,23.06
2022-11-07T03:50:50.358Z,23.64
2022-11-07T03:51:52.245Z,24.15
2022-11-07T03:52:54.111Z,25.26
2022-11-07T03:53:56.378Z,21.59
2022-11-07T06:30:24.474Z,21.59
2022-11-07T06:31:26.344Z,22.41
2022-11-07T06:32:29.255Z,24.11
2022-11-07T06:33:32.059Z,22.50
2022-11-07T06:34:34.425Z,20.49
2022-11-07T06:35:37.006Z,21.12
2022-11-07T06:36:39.021Z,22.34
2022-11-07T06:37:40.980Z,20.65
2022-11-07T06:38:42.840Z,19.79
2022-11-07T06:39:44.890Z,20.47
2022-11-07T06:40:46.964Z,20.25
2022-11-07T06:41:49.676Z,18.41
2022-11-07T06:42:51.542Z,20.07
2022-11-07T06:43:55.445Z,19.41
2022-11-07T06:44:57.479Z,18.83
2022-11-07T06:46:02.164Z,20.96
2022-11-07T06:47:04.237Z,19.70
2022-11-07T06:48:07.143Z,19.80
2022-11-07T06:49:09.802Z,18.75
2022-11-07T06:50:12.926Z,20.34
2022-11-07T06:51:14.844Z,18.87
2022-11-07T06:52:17.078Z,19.69
2022-11-07T06:53:19.528Z,19.59
2022-11-07T06:54:21.824Z,18.65
2022-11-07T06:55:23.696Z,19.04
2022-11-07T06:56:25.982Z,19.64
2022-11-07T06:57:29.019Z,18.27
2022-11-07T06:58:31.272Z,18.45
2022-11-07T06:59:33.145Z,18.99
2022-11-07T07:00:37.376Z,17.73
2022-11-07T07:01:40.301Z,18.69
2022-11-07T07:02:58.106Z,19.14
2022-11-07T07:03:46.354Z,18.23
2022-11-07T07:04:48.253Z,18.79
2022-11-07T07:05:50.110Z,19.49
2022-11-07T07:06:52.169Z,17.36
2022-11-07T07:07:55.216Z,19.17
2022-11-07T07:08:57.648Z,18.06
2022-11-07T07:09:59.639Z,18.45
2022-11-07T07:11:04.950Z,19.78
2022-11-07T07:12:10.242Z,18.51
2022-11-07T07:13:14.030Z,19.08
2022-11-07T07:14:16.963Z,18.90
2022-11-07T07:15:19.160Z,18.48
2022-11-07T07:16:21.227Z,18.97
2022-11-07T07:17:23.074Z,18.27
2022-11-07T07:18:26.378Z,17.53
2022-11-07T07:19:28.272Z,18.00
2022-11-07T07:20:30.545Z,19.21
2022-11-07T07:21:33.229Z,18.45
2022-11-07T07:22:35.090Z,18.34
2022-11-07T07:23:37.644Z,18.25
2022-11-07T07:24:39.750Z,18.37
2022-11-07T07:25:41.739Z,18.53
2022-11-07T07:26:43.715Z,18.56
2022-11-07T07:27:45.608Z,19.45
2022-11-07T07:28:47.634Z,19.47
2022-11-07T07:29:49.701Z,18.68
2022-11-07T07:30:52.421Z,18.22
2022-11-07T07:31:54.295Z,18.17
2022-11-07T07:32:56.183Z,18.26
2022-11-07T07:33:58.446Z,18.79
2022-11-07T07:35:02.132Z,18.69
2022-11-07T07:36:07.469Z,18.57
2022-11-07T07:37:09.404Z,17.54
2022-11-07T07:38:12.188Z,18.79
2022-11-07T07:39:14.563Z,19.07
2022-11-07T07:40:18.084Z,18.67
2022-11-07T07:41:20.548Z,18.22
2022-11-07T07:42:22.446Z,19.32
2022-11-07T07:43:25.034Z,18.47
2022-11-07T07:44:26.924Z,18.72
2022-11-07T07:45:28.847Z,19.35
2022-11-07T07:46:30.828Z,19.16
2022-11-07T07:47:32.701Z,19.32
2022-11-07T07:48:35.594Z,19.49
2022-11-07T07:49:37.661Z,19.35
2022-11-07T07:50:40.136Z,19.15
2022-11-07T07:51:42.010Z,19.23
2022-11-07T07:52:43.892Z,18.68
2022-11-07T07:53:45.874Z,18.69
2022-11-07T07:54:47.765Z,18.73
2022-11-07T07:55:49.990Z,17.44
2022-11-07T07:56:52.651Z,19.53
2022-11-07T07:57:54.544Z,18.48
2022-11-07T07:58:56.427Z,19.47
2022-11-07T07:59:58.306Z,18.84
2022-11-07T08:01:00.690Z,19.29
2022-11-07T08:02:02.789Z,18.61
2022-11-07T08:03:08.259Z,18.61
2022-11-07T08:04:10.171Z,17.62
2022-11-07T08:05:13.580Z,19.50
2022-11-07T08:06:15.570Z,19.89
2022-11-07T08:07:17.466Z,19.73
2022-11-07T08:08:19.527Z,19.09
2022-11-07T08:09:22.128Z,20.43
2022-11-07T08:11:27.901Z,19.14
2022-11-07T08:12:29.823Z,20.33
2022-11-07T08:13:34.656Z,19.53
2022-11-07T08:14:36.673Z,20.83
2022-11-07T08:15:39.362Z,20.21
2022-11-07T08:16:41.491Z,19.27
2022-11-07T08:17:45.169Z,19.51
2022-11-07T08:18:47.317Z,19.79
2022-11-07T08:19:49.302Z,18.50
2022-11-07T08:20:53.735Z,19.51
2022-11-07T08:21:55.681Z,19.82
2022-11-07T08:23:02.829Z,18.83
2022-11-07T08:24:06.198Z,18.45
2022-11-07T08:25:10.377Z,19.01
2022-11-07T08:26:12.443Z,17.82
2022-11-07T08:27:14.320Z,18.15
2022-11-07T08:28:16.299Z,18.47
2022-11-07T08:29:18.456Z,18.45
2022-11-07T08:30:20.761Z,17.63
2022-11-07T08:31:22.685Z,17.95
2022-11-07T08:32:27.060Z,17.59
2022-11-07T08:33:29.536Z,16.83
2022-11-07T08:34:31.591Z,18.46
2022-11-07T08:35:38.118Z,18.27
2022-11-07T08:36:37.365Z,18.02
2022-11-07T08:37:39.261Z,17.85
2022-11-07T08:38:41.579Z,20.18
2022-11-07T08:39:43.492Z,19.26
2022-11-07T08:40:45.537Z,22.99
2022-11-07T08:41:47.459Z,20.96
2022-11-07T08:42:49.551Z,21.13
2022-11-07T08:43:51.451Z,19.81
2022-11-07T08:44:53.349Z,20.27
2022-11-07T08:45:56.272Z,20.08
2022-11-07T08:46:58.281Z,19.60
2022-11-07T08:48:00.286Z,18.10
2022-11-07T08:49:02.300Z,18.98
2022-11-07T08:50:05.829Z,17.59
2022-11-07T08:51:08.711Z,17.94
2022-11-07T08:52:10.646Z,18.11
2022-11-07T08:53:12.507Z,19.23
2022-11-07T08:54:14.621Z,18.60
2022-11-07T08:55:16.664Z,17.82
2022-11-07T08:56:18.646Z,18.53
2022-11-07T08:57:20.538Z,16.85
2022-11-07T08:58:27.341Z,18.71
2022-11-07T08:59:27.123Z,18.19
2022-11-07T09:00:29.417Z,17.54
2022-11-07T09:01:31.462Z,17.48
2022-11-07T09:03:46.041Z,18.02
2022-11-07T09:04:42.861Z,18.17
2022-11-07T09:05:44.945Z,18.29
2022-11-07T09:06:46.899Z,18.57
2022-11-07T09:07:48.767Z,17.27
2022-11-07T09:08:50.629Z,17.73
2022-11-07T09:09:52.495Z,18.55
2022-11-07T09:10:54.469Z,18.12
2022-11-07T09:11:56.330Z,17.68
2022-11-07T09:12:58.184Z,18.09
2022-11-07T09:14:00.057Z,19.29
2022-11-07T09:15:02.333Z,19.15
2022-11-07T09:16:05.030Z,18.97
2022-11-07T09:17:07.360Z,17.19
2022-11-07T09:18:09.247Z,19.47
2022-11-07T09:19:11.340Z,17.61
2022-11-07T09:20:13.713Z,17.31
2022-11-07T09:21:21.782Z,18.13
2022-11-07T09:22:20.082Z,17.94
2022-11-07T09:23:22.012Z,16.61
2022-11-07T09:24:23.883Z,16.51
2022-11-07T09:25:26.280Z,15.95
2022-11-07T09:26:28.278Z,17.12
2022-11-07T09:27:30.123Z,17.26
2022-11-07T09:28:32.423Z,16.73
2022-11-07T09:29:34.286Z,16.71
2022-11-07T09:30:36.821Z,18.87
2022-11-07T09:31:38.707Z,17.00
2022-11-07T09:32:45.270Z,16.33
2022-11-07T09:33:44.378Z,17.29
2022-11-07T09:34:49.358Z,16.80
2022-11-07T09:35:50.469Z,17.29
2022-11-07T09:36:52.463Z,16.49
2022-11-07T09:37:54.318Z,17.19
2022-11-07T09:38:56.245Z,17.30
2022-11-07T09:39:58.179Z,17.01
2022-11-07T09:41:22.174Z,16.73
2022-11-07T09:42:37.415Z,17.17
2022-11-07T09:44:18.065Z,16.83
2022-11-07T09:45:20.797Z,17.81
2022-11-07T09:46:32.016Z,16.89
2022-11-07T09:47:49.421Z,17.28
2022-11-07T09:49:00.838Z,16.89
2022-11-07T09:51:10.459Z,16.12
2022-11-07T09:52:36.152Z,17.59
2022-11-07T09:53:41.853Z,18.06
2022-11-07T09:54:47.540Z,16.87
2022-11-07T09:55:55.680Z,17.73
2022-11-07T09:56:58.718Z,17.29
2022-11-07T09:58:04.175Z,16.95
2022-11-07T09:59:14.113Z,16.10
2022-11-07T10:00:19.502Z,16.89
2022-11-07T10:01:22.167Z,16.32
2022-11-07T10:02:33.967Z,17.55
2022-11-07T10:03:37.840Z,17.30
2022-11-07T13:53:01.642Z,16.70
2022-11-07T13:54:36.107Z,16.11
2022-11-07T13:55:47.681Z,15.57
2022-11-07T13:57:08.410Z,16.02
2022-11-07T13:58:14.075Z,16.03
2022-11-07T13:59:36.434Z,15.29
2022-11-07T14:00:36.912Z,15.88
2022-11-07T14:01:41.968Z,14.70
2022-11-07T14:02:56.364Z,14.72
2022-11-07T14:03:58.390Z,15.12
2022-11-07T14:05:20.512Z,14.81
2022-11-07T14:06:14.526Z,14.29
2022-11-07T14:07:20.269Z,13.94
2022-11-07T14:08:26.292Z,14.92
2022-11-07T14:09:30.396Z,14.39
2022-11-07T14:10:39.026Z,14.19
2022-11-07T14:11:41.236Z,13.40
2022-11-07T14:12:43.618Z,14.56
2022-11-07T14:13:52.365Z,14.15
2022-11-07T14:14:56.492Z,13.82
2022-11-07T14:16:02.010Z,14.08
2022-11-07T14:17:04.032Z,12.92
2022-11-07T14:18:06.316Z,13.61
2022-11-07T14:19:17.018Z,13.53
2022-11-07T14:20:19.710Z,15.19
2022-11-07T14:23:41.453Z,13.88
2022-11-07T14:24:47.156Z,14.72
2022-11-07T14:26:18.662Z,13.08
2022-11-07T14:27:21.368Z,13.29
2022-11-07T14:28:24.028Z,13.76
2022-11-07T14:29:26.503Z,14.39
2022-11-07T14:30:29.996Z,13.88
2022-11-07T14:32:53.133Z,14.85
2022-11-07T14:33:58.162Z,14.08
2022-11-07T14:35:00.185Z,14.61
2022-11-07T14:36:04.925Z,14.47
2022-11-07T14:37:09.212Z,13.33
2022-11-07T14:38:20.871Z,14.04
2022-11-07T14:39:25.401Z,13.72
2022-11-07T14:40:28.219Z,13.78
2022-11-07T14:41:30.485Z,14.82
2022-11-07T14:42:32.802Z,14.69
2022-11-07T14:43:36.474Z,15.61
2022-11-07T14:44:54.419Z,15.39
2022-11-07T14:46:58.160Z,15.24
2022-11-07T14:48:00.854Z,15.89
2022-11-07T14:49:03.057Z,15.09
2022-11-07T14:50:06.717Z,14.59
2022-11-07T14:51:14.332Z,14.81
2022-11-07T14:52:20.029Z,13.97
2022-11-07T14:53:28.351Z,14.77
2022-11-07T14:54:34.101Z,14.73
2022-11-07T14:55:45.752Z,14.99
2022-11-07T14:56:51.523Z,13.71
2022-11-07T14:57:54.056Z,14.03
2022-11-07T14:58:57.229Z,14.24
2022-11-07T14:59:59.238Z,15.06
2022-11-07T15:01:11.204Z,14.43
2022-11-07T15:02:19.132Z,14.07
2022-11-07T15:03:24.142Z,14.68
2022-11-07T15:04:29.826Z,14.70
2022-11-07T15:05:41.820Z,15.19
2022-11-07T15:06:44.965Z,14.80
2022-11-07T15:07:48.684Z,14.16
2022-11-07T15:09:00.034Z,14.11
2022-11-07T15:10:27.142Z,13.79
2022-11-07T15:11:41.231Z,15.69
2022-11-07T15:12:51.648Z,15.61
2022-11-07T15:13:54.056Z,15.62
2022-11-07T15:15:05.830Z,15.32
2022-11-07T15:16:16.826Z,14.38
2022-11-07T15:17:22.907Z,13.70
2022-11-07T15:18:26.755Z,14.83
2022-11-07T15:19:29.266Z,15.29
2022-11-07T15:20:37.067Z,14.93
2022-11-07T15:21:42.938Z,15.18
2022-11-07T15:22:46.042Z,13.93
2022-11-07T15:23:47.950Z,14.66
2022-11-07T15:24:49.816Z,13.67
2022-11-07T15:26:00.685Z,14.89
2022-11-07T15:27:06.490Z,14.68
2022-11-07T15:29:35.689Z,13.94
2022-11-07T15:30:38.892Z,14.24
2022-11-07T15:31:46.417Z,14.64
2022-11-07T15:32:48.335Z,14.52
2022-11-07T15:33:52.064Z,13.75
2022-11-07T15:35:23.104Z,13.98
2022-11-07T15:36:01.516Z,14.50
2022-11-07T15:37:20.049Z,14.04
2022-11-07T15:38:25.484Z,14.55
2022-11-07T15:39:27.405Z,14.34
2022-11-07T15:40:29.758Z,14.38
2022-11-07T15:41:31.636Z,16.69
2022-11-07T15:42:34.164Z,17.41
2022-11-07T15:43:36.058Z,16.41
2022-11-07T15:44:38.055Z,15.67
2022-11-07T15:46:01.647Z,15.55
2022-11-07T15:47:05.070Z,15.33
2022-11-07T15:48:10.160Z,15.79
2022-11-07T15:49:12.146Z,16.39
2022-11-07T15:50:21.295Z,15.01
2022-11-07T15:51:23.460Z,14.18
2022-11-07T15:52:25.342Z,15.81
2022-11-07T15:53:29.473Z,16.09
2022-11-07T15:54:31.367Z,14.63
2022-11-07T15:55:33.237Z,14.67
2022-11-07T15:56:35.196Z,16.00
2022-11-07T15:57:37.088Z,14.66
2022-11-07T15:58:39.423Z,14.95
2022-11-07T15:59:42.961Z,14.45
2022-11-07T16:00:44.976Z,14.06
2022-11-07T16:01:48.066Z,15.61
2022-11-07T16:02:51.214Z,15.12
2022-11-07T16:03:54.089Z,13.74
2022-11-07T16:04:55.948Z,15.29
2022-11-07T16:05:59.825Z,15.19
2022-11-07T16:07:01.966Z,15.82
2022-11-07T16:08:04.948Z,14.47
2022-11-07T16:09:16.586Z,15.37
2022-11-07T16:10:26.181Z,15.56
2022-11-07T16:11:28.112Z,15.18
2022-11-07T16:12:30.116Z,16.03
2022-11-07T16:13:31.990Z,15.15
2022-11-07T16:14:43.874Z,15.48
2022-11-07T16:15:41.953Z,15.88
2022-11-07T16:16:46.578Z,15.88
2022-11-07T16:17:49.221Z,15.56
2022-11-07T16:18:53.049Z,14.39
2022-11-07T16:19:58.804Z,15.33
2022-11-07T16:20:58.852Z,14.84
2022-11-07T16:22:02.786Z,14.38
2022-11-07T16:23:05.572Z,15.65
2022-11-07T16:24:08.658Z,15.18
2022-11-07T16:25:21.584Z,15.63
2022-11-07T16:26:27.934Z,15.66
2022-11-07T16:27:29.888Z,16.64
2022-11-07T16:28:33.809Z,16.39
2022-11-07T16:29:35.831Z,15.45
2022-11-07T16:30:37.900Z,14.93
2022-11-07T16:31:40.659Z,14.95
2022-11-07T16:32:42.756Z,15.91
2022-11-07T16:33:46.922Z,15.69
2022-11-07T16:34:48.828Z,14.76
2022-11-07T16:35:57.682Z,15.97
2022-11-07T16:36:59.817Z,15.57
2022-11-07T16:38:03.845Z,15.03
2022-11-07T16:39:07.225Z,16.42
2022-11-07T16:42:27.265Z,15.51
2022-11-07T16:43:29.153Z,15.23
2022-11-07T16:44:31.145Z,15.83
2022-11-07T16:45:35.560Z,14.45
2022-11-07T16:46:37.583Z,14.48
2022-11-07T16:47:39.438Z,13.97
2022-11-07T16:48:42.240Z,14.39
2022-11-07T16:51:05.658Z,15.22
2022-11-07T16:52:18.583Z,14.59
2022-11-07T16:53:21.761Z,15.14
2022-11-07T16:54:24.842Z,15.08
2022-11-07T16:55:26.722Z,15.89
2022-11-07T16:56:30.937Z,17.05
2022-11-07T16:57:35.650Z,15.70
2022-11-07T16:58:38.477Z,15.87
2022-11-07T16:59:41.274Z,14.40
2022-11-07T17:00:43.348Z,14.42
2022-11-07T17:01:45.661Z,15.64
2022-11-07T17:02:48.778Z,14.99
2022-11-07T17:03:51.826Z,15.63
2022-11-07T17:04:53.994Z,16.24
2022-11-07T17:05:58.789Z,15.47
2022-11-07T17:07:00.834Z,16.08
2022-11-07T17:08:03.422Z,16.63
2022-11-07T17:09:12.129Z,16.30
2022-11-07T17:10:14.127Z,16.27
2022-11-07T17:11:17.172Z,16.37
2022-11-07T17:12:22.327Z,15.83
2022-11-07T17:13:24.337Z,16.29
2022-11-07T17:14:26.289Z,16.84
2022-11-07T17:15:28.663Z,15.95
2022-11-07T17:16:31.307Z,15.25
2022-11-07T17:17:33.207Z,15.91
2022-11-07T17:18:35.067Z,17.32
2022-11-07T17:19:36.917Z,15.52
2022-11-07T17:20:51.019Z,15.19
2022-11-07T17:21:42.698Z,16.06
2022-11-07T17:22:44.586Z,17.94
2022-11-07T17:23:46.551Z,16.83
2022-11-07T17:24:48.414Z,15.45
2022-11-07T17:25:53.053Z,15.04
2022-11-07T17:26:55.852Z,16.08
2022-11-07T17:27:57.745Z,16.30
2022-11-07T17:28:59.900Z,15.64
2022-11-07T17:30:05.908Z,15.82
2022-11-07T17:31:05.685Z,15.77
2022-11-07T17:32:07.575Z,15.98
2022-11-07T17:33:09.427Z,15.11
2022-11-07T17:34:11.334Z,15.99
2022-11-07T17:36:36.554Z,15.27
2022-11-07T17:37:35.547Z,16.29
2022-11-07T17:38:37.570Z,16.22
2022-11-07T17:39:39.458Z,15.90
2022-11-07T17:40:41.435Z,16.09
2022-11-07T17:41:46.293Z,16.15
2022-11-07T17:42:48.192Z,16.73
2022-11-07T17:43:50.769Z,16.91
2022-11-07T17:44:53.002Z,16.99
2022-11-07T17:45:54.868Z,16.77
2022-11-07T17:46:57.247Z,17.90
2022-11-07T17:47:59.192Z,17.60
2022-11-07T17:49:03.904Z,18.63
2022-11-07T17:50:06.346Z,17.69
2022-11-07T17:51:10.170Z,17.26
2022-11-07T17:52:12.082Z,15.59
2022-11-07T17:53:14.386Z,17.69
2022-11-07T21:51:05.832Z,20.64
2022-11-07T21:52:07.964Z,20.33
2022-11-07T21:53:09.835Z,20.81
2022-11-07T21:54:11.736Z,20.29
2022-11-07T21:55:14.024Z,20.37
2022-11-07T21:58:32.618Z,21.75
2022-11-07T21:59:34.484Z,19.73
2022-11-07T22:00:37.145Z,20.21
2022-11-07T22:01:40.714Z,19.86
2022-11-07T22:02:42.891Z,20.02
2022-11-07T22:04:05.175Z,19.83
2022-11-07T22:04:48.949Z,22.09
2022-11-07T22:05:50.856Z,19.19
2022-11-07T22:06:53.140Z,19.57
2022-11-07T22:07:55.147Z,20.50
2022-11-07T22:08:57.122Z,19.32
2022-11-07T22:09:59.046Z,20.06
2022-11-07T22:11:01.126Z,20.74
2022-11-07T22:12:03.250Z,19.84
2022-11-07T22:13:05.122Z,20.20
2022-11-07T22:14:08.303Z,18.97
2022-11-07T22:15:10.552Z,18.41
2022-11-07T22:16:15.888Z,19.68
2022-11-07T22:17:17.927Z,19.59
2022-11-07T22:18:19.790Z,17.96
2022-11-07T22:19:21.769Z,18.86
2022-11-07T22:20:23.719Z,20.31
2022-11-07T22:21:26.074Z,19.90
2022-11-07T22:22:27.974Z,19.11
2022-11-07T22:23:31.770Z,19.45
2022-11-07T22:24:33.659Z,19.31
2022-11-07T22:25:35.714Z,19.73
2022-11-07T22:26:37.683Z,19.09
2022-11-07T22:27:39.651Z,18.79
2022-11-07T22:28:45.774Z,21.37
2022-11-07T22:29:46.537Z,20.69
2022-11-07T22:30:48.545Z,19.63
2022-11-07T22:31:50.400Z,18.81
2022-11-07T22:32:52.354Z,19.02
2022-11-07T22:33:55.796Z,19.93
2022-11-07T22:34:57.691Z,18.36
2022-11-07T22:36:01.840Z,18.35
2022-11-07T22:37:03.766Z,18.87
2022-11-07T22:38:05.635Z,17.96
2022-11-07T22:39:07.517Z,19.49
2022-11-07T22:40:10.400Z,18.75
2022-11-07T22:41:16.683Z,20.45
2022-11-07T22:42:23.789Z,19.80
2022-11-07T22:43:25.005Z,18.91
2022-11-07T22:44:26.922Z,20.44
2022-11-07T22:45:29.706Z,19.00
2022-11-07T22:46:31.892Z,18.45
2022-11-07T22:47:33.749Z,19.32
2022-11-07T22:48:36.341Z,18.76
2022-11-07T22:49:38.217Z,17.74
2022-11-07T22:50:40.303Z,18.19
2022-11-07T22:51:42.254Z,19.05
2022-11-07T22:52:44.125Z,20.63
2022-11-07T22:53:48.303Z,19.47
2022-11-07T22:54:50.214Z,19.53
2022-11-07T22:55:52.063Z,19.46
2022-11-07T22:56:54.058Z,18.83
2022-11-07T22:57:55.943Z,20.20
2022-11-07T22:58:58.417Z,19.03
2022-11-07T23:00:11.079Z,19.86
2022-11-07T23:01:05.684Z,19.12
2022-11-07T23:02:07.667Z,18.54
2022-11-07T23:03:09.723Z,20.09
2022-11-07T23:04:15.724Z,19.01
2022-11-07T23:05:17.714Z,20.36
2022-11-07T23:06:21.510Z,19.61
2022-11-07T23:07:23.399Z,19.72
2022-11-07T23:08:25.405Z,19.21
2022-11-07T23:09:27.294Z,19.79
2022-11-07T23:10:29.255Z,20.55
2022-11-07T23:11:50.039Z,18.71
2022-11-07T23:12:38.498Z,20.18
2022-11-07T23:13:41.015Z,18.94
2022-11-07T23:14:42.900Z,19.71
2022-11-07T23:15:44.955Z,19.17
2022-11-07T23:16:53.239Z,20.00
2022-11-07T23:17:55.172Z,19.80
2022-11-07T23:18:57.675Z,19.07
2022-11-07T23:19:59.550Z,19.59
2022-11-07T23:21:01.533Z,21.11
2022-11-07T23:22:03.386Z,20.29
2022-11-07T23:23:05.340Z,20.43
2022-11-07T23:24:07.478Z,19.04
2022-11-07T23:25:09.376Z,21.11
2022-11-07T23:26:14.845Z,20.73
2022-11-07T23:27:19.598Z,19.13
2022-11-07T23:28:23.396Z,19.73
2022-11-07T23:29:25.699Z,20.21
2022-11-07T23:30:27.670Z,20.41
2022-11-07T23:31:29.570Z,20.14
2022-11-07T23:32:31.447Z,20.31
2022-11-07T23:33:34.624Z,20.56
2022-11-07T23:34:36.750Z,19.69
2022-11-07T23:35:38.645Z,18.79
2022-11-07T23:36:42.507Z,19.44
2022-11-07T23:37:44.928Z,21.04
2022-11-07T23:38:47.033Z,20.64
2022-11-07T23:39:48.920Z,20.73
2022-11-07T23:40:50.936Z,20.75
2022-11-07T23:41:52.839Z,21.80
2022-11-07T23:42:54.826Z,21.45
2022-11-07T23:43:56.697Z,19.98
2022-11-07T23:44:58.903Z,21.23
2022-11-07T23:46:03.396Z,18.79
2022-11-07T23:47:05.293Z,19.85
2022-11-07T23:48:10.943Z,19.84
2022-11-07T23:49:14.791Z,19.33
2022-11-07T23:50:17.348Z,19.11
2022-11-07T23:51:19.240Z,19.09
2022-11-07T23:52:21.522Z,18.51
2022-11-07T23:53:23.419Z,19.82
2022-11-07T23:54:25.493Z,17.67
2022-11-07T23:55:27.416Z,17.14
2022-11-07T23:56:30.226Z,17.65
2022-11-07T23:57:34.021Z,17.93
2022-11-07T23:58:35.993Z,19.40
2022-11-07T23:59:37.898Z,18.27
